Briefing drone pour Saint-jorioz

Rechercher une autre localisation

Conditions de vol :


Nous sommes le : Lundi 21 juin 2021
Il est 21:56 UTC (23:56 LT)

Lever de soleil : 03:19 UTC (05:19 LT)
Coucher de soleil : 19:55 UTC (21:55 LT)

Météo

L'essentiel des conditions de vol

VIGILANCE MÉTÉO FRANCE - Haute-Savoie (74)
Vigilance Jaune : Orages
METAR de LFLP
LFLP 212130Z AUTO VRB01KT 9999 FEW052 SCT064 OVC082 20/15 Q1011

Date d'émission: 21/06/2021
Heure d'émission: 21:30 UTC
Vent: Variable 1 KT (2 km/h)
Visibilité horizontale: > 10 km
Plafond :
- Peu de nuages à 5200ft (1585m)
- Nuages épars à 6400ft (1951m)
- Couvert à 8200ft (2499m)
Température: 20 °C
Point de rosée: 15 °C
Humidité: 73%
Pression (QNH): 1011 hPa
TAF de LFLP
AMD LFLP 211917Z 2119/2215 CNL

Conditions prévues :

Heure d'émission : Bulletin éffectué le 21 à 19:00 UTC
Prévision : Valide du 21 a 19:00 UTC au 22 a 15:00 UTC
Nuages : à 0ft (0 m)
WEBCAM POUR SAINT-JORIOZ

Réglementation

Voler en sécurité

CARTES AERONAUTIQUE 1/500.000
CARTES VAC (LFLP)
SUP AIP




Chargement des AIP...
NOTAM (SAINT-JORIOZ + Terrain à proximité / FIR )




Chargement des NOTAMS...
CONTACT PREFECTURE 74


Avertissement : Les données mises à disposition sont indicatives. Oxygène Drone ne pourra être tenu responsable de dégâts causés aux biens et aux personnes.